createdAt,value
2019-05-18T00:04:09.441Z,9.80
2019-05-18T00:09:13.168Z,11.30
2019-05-18T00:14:16.854Z,10.43
2019-05-18T00:19:20.599Z,10.00
2019-05-18T00:24:24.419Z,9.23
2019-05-18T00:29:28.232Z,8.63
2019-05-18T00:34:31.902Z,10.60
2019-05-18T00:39:35.625Z,10.77
2019-05-18T00:44:39.334Z,13.13
2019-05-18T00:49:43.113Z,12.73
2019-05-18T00:54:46.831Z,11.50
2019-05-18T00:59:50.779Z,11.27
2019-05-18T01:04:54.649Z,13.47
2019-05-18T01:09:58.446Z,11.60
2019-05-18T01:15:02.241Z,10.37
2019-05-18T01:20:06.088Z,11.20
2019-05-18T01:25:09.778Z,13.70
2019-05-18T01:30:13.501Z,11.67
2019-05-18T01:35:17.238Z,12.03
2019-05-18T01:40:20.974Z,14.37
2019-05-18T01:45:25.281Z,13.50
2019-05-18T01:50:29.026Z,12.17
2019-05-18T01:55:32.746Z,11.80
2019-05-18T02:00:36.598Z,13.33
2019-05-18T02:05:40.431Z,12.03
2019-05-18T02:10:44.194Z,11.70
2019-05-18T02:15:47.879Z,11.50
2019-05-18T02:20:51.586Z,13.07
2019-05-18T02:25:55.346Z,13.10
2019-05-18T02:30:59.094Z,16.47
2019-05-18T02:36:02.812Z,11.23
2019-05-18T02:41:06.650Z,12.40
2019-05-18T02:46:10.294Z,10.93
2019-05-18T02:51:14.246Z,10.80
2019-05-18T02:56:18.099Z,11.80
2019-05-18T03:01:21.901Z,13.07
2019-05-18T03:06:25.769Z,12.57
2019-05-18T03:11:29.504Z,11.17
2019-05-18T03:16:33.386Z,12.90
2019-05-18T03:21:37.141Z,11.97
2019-05-18T03:26:40.870Z,11.20
2019-05-18T03:31:44.518Z,13.07
2019-05-18T03:36:48.318Z,15.47
2019-05-18T03:41:52.161Z,12.63
2019-05-18T03:46:55.941Z,10.93
2019-05-18T03:51:59.648Z,11.33
2019-05-18T03:57:03.409Z,15.03
2019-05-18T04:02:07.236Z,10.37
2019-05-18T04:07:11.056Z,11.13
2019-05-18T04:12:14.877Z,15.40
2019-05-18T04:17:20.533Z,11.10
2019-05-18T04:22:24.273Z,10.70
2019-05-18T04:27:28.129Z,11.90
2019-05-18T04:32:32.001Z,12.07
2019-05-18T04:37:35.780Z,12.77
2019-05-18T04:42:39.665Z,11.73
2019-05-18T04:47:47.602Z,11.63
2019-05-18T04:52:49.200Z,14.70
2019-05-18T04:57:52.924Z,11.50
2019-05-18T05:02:56.841Z,16.50
2019-05-18T05:08:00.664Z,13.57
2019-05-18T05:13:04.649Z,17.33
2019-05-18T05:18:08.362Z,14.27
2019-05-18T05:23:12.308Z,18.80
2019-05-18T05:28:16.025Z,14.97
2019-05-18T05:33:19.982Z,16.60
2019-05-18T05:38:23.741Z,13.90
2019-05-18T05:43:27.613Z,15.10
2019-05-18T05:48:31.527Z,13.30
2019-05-18T05:53:35.235Z,14.80
2019-05-18T05:58:38.999Z,16.43
2019-05-18T06:03:42.802Z,15.07
2019-05-18T06:08:46.588Z,16.27
2019-05-18T06:13:50.392Z,16.10
2019-05-18T06:18:56.164Z,11.97
2019-05-18T06:24:00.147Z,14.00
2019-05-18T06:29:04.108Z,17.20
2019-05-18T06:34:07.892Z,12.00
2019-05-18T06:39:13.364Z,13.03
2019-05-18T06:44:17.223Z,13.60
2019-05-18T06:49:20.997Z,12.50
2019-05-18T06:54:24.775Z,13.00
2019-05-18T06:59:28.620Z,13.40
2019-05-18T07:04:32.511Z,12.27
2019-05-18T07:09:36.389Z,23.43
2019-05-18T07:14:40.177Z,17.30
2019-05-18T07:19:43.931Z,14.40
2019-05-18T07:24:47.779Z,15.00
2019-05-18T07:29:51.573Z,14.20
2019-05-18T07:34:55.328Z,15.20
2019-05-18T07:39:59.414Z,13.80
2019-05-18T07:45:03.373Z,13.83
2019-05-18T07:50:07.131Z,11.50
2019-05-18T07:55:10.932Z,14.40
2019-05-18T08:00:14.817Z,12.10
2019-05-18T08:05:18.607Z,22.07
2019-05-18T08:10:34.679Z,18.70
2019-05-18T08:15:38.895Z,15.47
2019-05-18T08:20:42.834Z,15.97
2019-05-18T08:25:46.652Z,29.50
2019-05-18T08:30:50.444Z,15.90
2019-05-18T08:35:54.320Z,12.47
2019-05-18T08:40:58.018Z,17.40
2019-05-18T08:46:01.892Z,23.03
2019-05-18T08:51:06.042Z,22.03
2019-05-18T08:56:09.810Z,21.80
2019-05-18T09:01:13.728Z,17.30
2019-05-18T09:06:17.600Z,17.77
2019-05-18T09:11:21.560Z,17.10
2019-05-18T09:16:25.399Z,17.17
2019-05-18T09:21:29.058Z,14.60
2019-05-18T09:26:32.780Z,18.33
2019-05-18T09:31:36.522Z,45.27
2019-05-18T09:36:40.348Z,13.70
2019-05-18T09:41:44.164Z,20.90
2019-05-18T09:46:48.030Z,17.87
2019-05-18T09:51:51.864Z,15.73
2019-05-18T09:56:55.586Z,15.27
2019-05-18T10:01:59.475Z,18.60
2019-05-18T10:07:03.499Z,14.27
2019-05-18T10:12:07.491Z,17.00
2019-05-18T10:17:11.262Z,16.20
2019-05-18T10:22:15.217Z,16.93
2019-05-18T10:27:19.157Z,12.03
2019-05-18T10:32:23.270Z,13.30
2019-05-18T10:37:27.182Z,12.43
2019-05-18T10:42:31.052Z,13.70
2019-05-18T10:47:35.161Z,12.10
2019-05-18T10:52:42.392Z,46.27
2019-05-18T10:57:46.186Z,48.10
2019-05-18T11:02:50.578Z,25.70
2019-05-18T11:07:54.475Z,23.90
2019-05-18T11:12:58.339Z,36.07
2019-05-18T11:18:02.758Z,12.20
2019-05-18T11:23:06.802Z,14.50
2019-05-18T11:28:10.567Z,14.67
2019-05-18T11:33:14.380Z,17.10
2019-05-18T11:38:18.216Z,14.10
2019-05-18T11:43:22.112Z,11.50
2019-05-18T11:48:25.952Z,17.23
2019-05-18T11:53:29.826Z,20.00
2019-05-18T11:58:33.697Z,9.13
2019-05-18T12:03:37.849Z,12.90
2019-05-18T12:08:41.785Z,13.47
2019-05-18T12:13:45.920Z,13.17
2019-05-18T12:18:49.761Z,11.77
2019-05-18T12:23:53.696Z,12.13
2019-05-18T12:28:57.531Z,15.00
2019-05-18T12:34:01.363Z,18.17
2019-05-18T12:39:06.526Z,12.80
2019-05-18T12:44:10.319Z,16.67
2019-05-18T12:49:14.151Z,12.63
2019-05-18T12:54:29.287Z,14.73
2019-05-18T12:59:23.458Z,24.10
2019-05-18T13:04:28.227Z,16.57
2019-05-18T13:09:32.061Z,33.60
2019-05-18T13:14:36.056Z,29.23
2019-05-18T13:19:39.982Z,18.00
2019-05-18T13:24:45.745Z,14.00
2019-05-18T13:29:49.871Z,13.03
2019-05-18T13:34:53.687Z,16.40
2019-05-18T13:39:57.686Z,21.07
2019-05-18T13:45:01.580Z,22.67
2019-05-18T13:50:06.046Z,31.17
2019-05-18T13:55:09.792Z,25.93
2019-05-18T14:00:13.965Z,22.23
2019-05-18T14:05:18.834Z,25.67
2019-05-18T14:10:22.727Z,28.03
2019-05-18T14:15:26.607Z,26.33
2019-05-18T14:20:30.388Z,24.77
2019-05-18T14:25:34.159Z,29.30
2019-05-18T14:30:38.024Z,18.47
2019-05-18T14:35:41.819Z,23.77
2019-05-18T14:40:45.607Z,24.07
2019-05-18T14:45:49.743Z,19.17
2019-05-18T14:50:53.680Z,26.97
2019-05-18T14:55:57.552Z,20.83
2019-05-18T15:01:20.640Z,16.40
2019-05-18T15:06:24.421Z,20.30
2019-05-18T15:11:28.138Z,15.07
2019-05-18T15:16:33.001Z,15.60
2019-05-18T15:21:36.833Z,13.73
2019-05-18T15:26:40.789Z,17.67
2019-05-18T15:31:44.766Z,19.40
2019-05-18T15:36:48.799Z,13.33
2019-05-18T15:41:52.872Z,14.30
2019-05-18T15:46:56.653Z,14.57
2019-05-18T15:52:00.607Z,12.77
2019-05-18T15:57:04.539Z,13.70
2019-05-18T16:02:08.426Z,13.20
2019-05-18T16:07:12.140Z,14.30
2019-05-18T16:12:17.322Z,11.60
2019-05-18T16:17:21.222Z,11.90
2019-05-18T16:22:25.332Z,15.37
2019-05-18T16:27:30.007Z,11.83
2019-05-18T16:32:33.888Z,10.30
2019-05-18T16:37:37.751Z,11.37
2019-05-18T16:42:41.797Z,11.77
2019-05-18T16:47:45.654Z,9.90
2019-05-18T16:52:49.353Z,11.37
2019-05-18T16:57:53.235Z,10.13
2019-05-18T17:02:57.123Z,10.77
2019-05-18T17:08:01.050Z,10.10
2019-05-18T17:13:04.842Z,9.70
2019-05-18T17:18:08.611Z,11.37
2019-05-18T17:23:31.838Z,10.00
2019-05-18T17:28:35.708Z,8.90
2019-05-18T17:33:39.452Z,9.20
2019-05-18T17:38:43.488Z,10.73
2019-05-18T17:43:47.357Z,9.60
2019-05-18T17:48:51.181Z,9.27
2019-05-18T17:53:55.043Z,7.40
2019-05-18T17:58:59.110Z,7.33
2019-05-18T18:04:02.935Z,7.70
2019-05-18T18:09:08.117Z,6.13
2019-05-18T18:14:12.376Z,5.83
2019-05-18T18:19:34.731Z,6.67
2019-05-18T18:24:38.546Z,8.43
2019-05-18T18:29:42.736Z,4.63
2019-05-18T18:34:46.543Z,7.37
2019-05-18T18:39:50.251Z,6.27
2019-05-18T18:45:13.497Z,6.50
2019-05-18T18:50:21.214Z,6.20
2019-05-18T18:55:25.656Z,5.70
2019-05-18T19:00:29.545Z,9.40
2019-05-18T19:05:33.429Z,13.20
2019-05-18T19:10:37.402Z,18.73
2019-05-18T19:15:41.212Z,12.80
2019-05-18T19:20:44.933Z,10.20
2019-05-18T19:25:48.577Z,10.33
2019-05-18T19:31:11.641Z,9.03
2019-05-18T19:36:15.713Z,9.60
2019-05-18T19:41:19.603Z,8.40
2019-05-18T19:46:23.533Z,7.40
2019-05-18T19:51:27.481Z,6.90
2019-05-18T19:56:38.242Z,10.27
2019-05-18T20:01:36.853Z,8.90
2019-05-18T20:06:40.740Z,10.67
2019-05-18T20:11:44.703Z,10.67
2019-05-18T20:16:48.890Z,16.83
2019-05-18T20:21:52.759Z,8.17
2019-05-18T20:26:56.684Z,11.27
2019-05-18T20:32:00.764Z,10.23
2019-05-18T20:37:04.693Z,9.07
2019-05-18T20:42:08.550Z,7.03
2019-05-18T20:47:12.339Z,7.83
2019-05-18T20:52:16.205Z,8.47
2019-05-18T20:57:20.033Z,9.10
2019-05-18T21:02:23.912Z,7.80
2019-05-18T21:07:27.743Z,9.33
2019-05-18T21:12:31.710Z,8.53
2019-05-18T21:17:35.779Z,7.10
2019-05-18T21:22:39.586Z,6.97
2019-05-18T21:27:43.400Z,7.80
2019-05-18T21:32:47.415Z,9.47
2019-05-18T21:37:51.400Z,7.77
2019-05-18T21:42:55.186Z,9.37
2019-05-18T21:47:59.044Z,6.43
2019-05-18T21:53:02.920Z,7.90
2019-05-18T21:58:06.751Z,8.87
2019-05-18T22:03:10.559Z,11.13
2019-05-18T22:08:14.282Z,9.10
2019-05-18T22:13:18.191Z,13.07
2019-05-18T22:18:24.597Z,9.77
2019-05-18T22:23:27.619Z,9.17
2019-05-18T22:28:31.468Z,9.10
2019-05-18T22:33:36.601Z,9.60
2019-05-18T22:38:42.021Z,9.87
2019-05-18T22:43:45.760Z,12.27
2019-05-18T22:48:49.515Z,10.73
2019-05-18T22:53:53.332Z,8.43
2019-05-18T22:58:57.097Z,8.20
2019-05-18T23:04:00.938Z,10.07
2019-05-18T23:09:05.710Z,8.13
2019-05-18T23:14:09.468Z,24.67
2019-05-18T23:19:13.401Z,14.00
2019-05-18T23:24:17.445Z,11.43
2019-05-18T23:29:21.208Z,10.37
2019-05-18T23:34:25.115Z,15.83
2019-05-18T23:39:29.014Z,9.40
2019-05-18T23:44:32.789Z,9.30
2019-05-18T23:49:36.725Z,8.73
2019-05-18T23:54:40.449Z,9.27
2019-05-18T23:59:44.289Z,9.83
